createdAt,value
2017-07-20T00:00:00.164Z,999.06
2017-07-20T00:00:40.633Z,999.06
2017-07-20T00:03:08.606Z,999.06
2017-07-20T00:03:49.118Z,999.05
2017-07-20T00:04:29.575Z,999.04
2017-07-20T00:05:09.981Z,999
2017-07-20T00:05:50.494Z,999.01
2017-07-20T00:06:30.999Z,999
2017-07-20T00:07:11.498Z,998.98
2017-07-20T00:07:51.885Z,999
2017-07-20T00:08:32.384Z,999.01
2017-07-20T00:09:12.844Z,998.97
2017-07-20T00:09:53.340Z,998.95
2017-07-20T00:10:33.769Z,998.98
2017-07-20T00:11:14.257Z,998.99
2017-07-20T00:11:54.717Z,999.01
2017-07-20T00:12:35.175Z,999.01
2017-07-20T00:13:15.636Z,999
2017-07-20T00:13:56.082Z,999.03
2017-07-20T00:14:36.550Z,999.03
2017-07-20T00:15:16.991Z,999.05
2017-07-20T00:15:57.506Z,999.07
2017-07-20T00:16:37.897Z,999.07
2017-07-20T00:17:18.337Z,999.07
2017-07-20T00:17:58.795Z,999.06
2017-07-20T00:18:39.229Z,999.05
2017-07-20T00:19:19.732Z,999.12
2017-07-20T00:20:00.139Z,999.08
2017-07-20T00:20:40.595Z,999.08
2017-07-20T00:21:21.018Z,999.07
2017-07-20T00:22:01.510Z,999.1
2017-07-20T00:22:41.936Z,999.08
2017-07-20T00:23:22.384Z,999.06
2017-07-20T00:24:02.850Z,999.1
2017-07-20T00:24:43.308Z,999.11
2017-07-20T00:25:23.792Z,999.1
2017-07-20T00:26:04.279Z,999.11
2017-07-20T00:26:44.716Z,999.09
2017-07-20T00:27:25.170Z,999.09
2017-07-20T00:28:05.612Z,999.11
2017-07-20T00:28:46.086Z,999.11
2017-07-20T00:29:26.580Z,999.12
2017-07-20T00:30:07.018Z,999.11
2017-07-20T00:30:47.478Z,999.1
2017-07-20T00:31:27.965Z,999.12
2017-07-20T00:32:08.405Z,999.14
2017-07-20T00:32:48.873Z,999.14
2017-07-20T00:33:29.319Z,999.14
2017-07-20T00:35:21.917Z,999.12
2017-07-20T00:36:02.356Z,999.11
2017-07-20T00:36:42.796Z,999.13
2017-07-20T00:37:23.257Z,999.15
2017-07-20T00:38:03.701Z,999.12
2017-07-20T00:38:44.158Z,999.13
2017-07-20T00:41:02.050Z,999.15
2017-07-20T00:41:42.549Z,999.13
2017-07-20T00:42:23.104Z,999.12
2017-07-20T00:44:40.900Z,999.13
2017-07-20T00:45:21.370Z,999.12
2017-07-20T00:46:01.872Z,999.07
2017-07-20T00:46:42.368Z,999.09
2017-07-20T00:47:22.847Z,999.07
2017-07-20T00:48:03.314Z,999.08
2017-07-20T00:48:43.740Z,999.07
2017-07-20T00:51:11.656Z,999.02
2017-07-20T00:51:52.134Z,999.06
2017-07-20T00:52:32.550Z,999.02
2017-07-20T00:53:13.013Z,999.03
2017-07-20T00:53:53.479Z,999.04
2017-07-20T00:54:33.889Z,999.08
2017-07-20T00:55:14.355Z,999.08
2017-07-20T00:55:54.886Z,999.07
2017-07-20T00:56:35.410Z,999.07
2017-07-20T00:57:15.832Z,999.07
2017-07-20T00:57:56.305Z,999.08
2017-07-20T00:58:36.814Z,999.04
2017-07-20T00:59:17.243Z,999.04
2017-07-20T00:59:57.674Z,999.04
2017-07-20T01:00:38.122Z,999.1
2017-07-20T01:01:18.529Z,999.08
2017-07-20T01:01:59.044Z,999.04
2017-07-20T01:02:39.502Z,999.09
2017-07-20T01:03:19.961Z,999.06
2017-07-20T01:04:00.393Z,999.08
2017-07-20T01:04:40.811Z,999.07
2017-07-20T01:05:21.302Z,999.08
2017-07-20T01:06:01.733Z,999.03
2017-07-20T01:06:42.145Z,999.04
2017-07-20T01:07:22.583Z,999.08
2017-07-20T01:08:03.071Z,999.03
2017-07-20T01:08:43.497Z,999.02
2017-07-20T01:09:23.944Z,999.05
2017-07-20T01:10:04.401Z,999.01
2017-07-20T01:10:44.862Z,999.06
2017-07-20T01:11:25.317Z,999.1
2017-07-20T01:12:05.741Z,999.05
2017-07-20T01:12:46.157Z,999.02
2017-07-20T01:13:26.615Z,999.04
2017-07-20T01:14:07.115Z,999.01
2017-07-20T01:14:47.571Z,999.02
2017-07-20T01:15:28.044Z,998.99
2017-07-20T01:16:08.500Z,999.03
2017-07-20T01:16:48.922Z,999.03
2017-07-20T01:17:29.387Z,999.01
2017-07-20T01:18:09.866Z,999
2017-07-20T01:18:50.329Z,998.99
2017-07-20T01:19:30.776Z,999
2017-07-20T01:20:11.206Z,998.98
2017-07-20T01:20:51.633Z,998.93
2017-07-20T01:21:32.092Z,999.04
2017-07-20T01:22:12.520Z,999.02
2017-07-20T01:22:52.991Z,998.97
2017-07-20T01:25:10.810Z,998.99
2017-07-20T01:25:51.267Z,999.01
2017-07-20T01:26:31.772Z,999.03
2017-07-20T01:27:12.203Z,999
2017-07-20T01:27:52.703Z,998.99
2017-07-20T01:28:33.134Z,999.01
2017-07-20T01:29:13.602Z,999.03
2017-07-20T01:29:54.030Z,999.01
2017-07-20T01:30:34.486Z,999.03
2017-07-20T01:31:14.946Z,999.06
2017-07-20T01:31:55.429Z,999.03
2017-07-20T01:32:35.943Z,999.03
2017-07-20T01:33:16.373Z,999.03
2017-07-20T01:33:56.794Z,999.07
2017-07-20T01:34:37.202Z,999.04
2017-07-20T01:35:17.666Z,999.03
2017-07-20T01:35:58.104Z,999.04
2017-07-20T01:36:38.533Z,999.03
2017-07-20T01:37:19.019Z,999.05
2017-07-20T01:37:59.536Z,999.03
2017-07-20T01:38:39.940Z,999.05
2017-07-20T01:39:20.380Z,999.05
2017-07-20T01:40:00.846Z,999.08
2017-07-20T01:41:53.435Z,999.09
2017-07-20T01:42:33.951Z,999.09
2017-07-20T01:43:14.384Z,999.05
2017-07-20T01:43:54.861Z,998.99
2017-07-20T01:44:35.309Z,998.98
2017-07-20T01:45:15.787Z,998.93
2017-07-20T01:45:56.265Z,998.93
2017-07-20T01:46:36.664Z,998.92
2017-07-20T01:47:17.162Z,998.92
2017-07-20T01:47:57.605Z,998.9
2017-07-20T01:48:38.060Z,998.93
2017-07-20T01:49:18.512Z,998.94
2017-07-20T01:49:58.990Z,998.94
2017-07-20T01:50:39.426Z,998.94
2017-07-20T01:51:19.900Z,998.9
2017-07-20T01:52:00.333Z,998.86
2017-07-20T01:53:52.924Z,998.89
2017-07-20T01:54:33.379Z,998.9
2017-07-20T01:55:13.863Z,998.93
2017-07-20T01:55:54.238Z,998.94
2017-07-20T01:56:34.699Z,998.93
2017-07-20T01:57:15.182Z,998.98
2017-07-20T01:59:07.777Z,999.03
2017-07-20T01:59:48.257Z,999
2017-07-20T02:00:28.714Z,999.04
2017-07-20T02:01:09.143Z,999.06
2017-07-20T02:01:49.592Z,999.01
2017-07-20T02:02:30.028Z,998.97
2017-07-20T02:03:10.544Z,998.98
2017-07-20T02:03:51.021Z,998.98
2017-07-20T02:04:31.500Z,998.96
2017-07-20T02:05:11.945Z,998.91
2017-07-20T02:07:40.662Z,998.9
2017-07-20T02:08:21.063Z,998.89
2017-07-20T02:09:01.557Z,998.85
2017-07-20T02:09:42.023Z,998.82
2017-07-20T02:10:22.491Z,998.89
2017-07-20T02:11:02.909Z,998.87
2017-07-20T02:11:43.361Z,998.87
2017-07-20T02:12:23.787Z,998.83
2017-07-20T02:13:04.228Z,998.86
2017-07-20T02:13:44.676Z,998.85
2017-07-20T02:14:25.129Z,998.87
2017-07-20T02:15:05.565Z,998.88
2017-07-20T02:15:46.040Z,998.9
2017-07-20T02:16:26.517Z,998.9
2017-07-20T02:17:06.922Z,998.91
2017-07-20T02:17:47.411Z,998.9
2017-07-20T02:18:27.880Z,998.93
2017-07-20T02:19:08.289Z,998.9
2017-07-20T02:19:48.731Z,998.86
2017-07-20T02:20:29.231Z,998.91
2017-07-20T02:21:09.687Z,998.9
2017-07-20T02:21:50.194Z,998.91
2017-07-20T02:22:30.654Z,998.89
2017-07-20T02:23:11.101Z,998.86
2017-07-20T02:23:51.544Z,998.87
2017-07-20T02:24:32.073Z,998.84
2017-07-20T02:25:12.516Z,998.86
2017-07-20T02:25:52.924Z,998.87
2017-07-20T02:26:33.396Z,998.85
2017-07-20T02:27:13.846Z,998.88
2017-07-20T02:27:54.500Z,998.86
2017-07-20T02:28:34.957Z,998.88
2017-07-20T02:29:15.409Z,998.82
2017-07-20T02:29:55.865Z,998.86
2017-07-20T02:30:36.320Z,998.85
2017-07-20T02:31:16.753Z,998.84
2017-07-20T02:31:57.206Z,998.85
2017-07-20T02:32:37.656Z,998.81
2017-07-20T02:33:18.120Z,998.82
2017-07-20T02:33:58.579Z,998.78
2017-07-20T02:34:39.043Z,998.83
2017-07-20T02:35:19.554Z,998.85
2017-07-20T02:35:59.975Z,998.8
2017-07-20T02:36:40.474Z,998.86
2017-07-20T02:37:20.965Z,998.89
2017-07-20T02:38:01.369Z,998.87
2017-07-20T02:38:42.814Z,998.84
2017-07-20T02:39:23.274Z,998.89
2017-07-20T02:40:03.732Z,998.87
2017-07-20T02:40:44.221Z,998.87
2017-07-20T02:41:24.647Z,998.87
2017-07-20T02:42:05.103Z,998.87
2017-07-20T02:42:45.546Z,998.85
2017-07-20T02:43:26.030Z,998.86
2017-07-20T02:44:06.465Z,998.88
2017-07-20T02:44:46.904Z,998.89
2017-07-20T02:45:27.429Z,998.89
2017-07-20T02:46:07.796Z,998.89
2017-07-20T02:46:48.258Z,998.87
2017-07-20T02:47:28.720Z,998.89
2017-07-20T02:48:09.191Z,998.91
2017-07-20T02:48:49.647Z,998.88
2017-07-20T02:49:30.128Z,998.85
2017-07-20T02:50:10.536Z,998.86
2017-07-20T02:50:50.995Z,998.9
2017-07-20T02:52:11.915Z,998.89
2017-07-20T02:52:52.335Z,998.85
2017-07-20T02:53:32.804Z,998.86
2017-07-20T02:55:50.603Z,998.87
2017-07-20T02:58:09.321Z,998.88
2017-07-20T02:58:49.788Z,998.9
2017-07-20T02:59:30.203Z,998.9
2017-07-20T03:00:10.640Z,998.87
2017-07-20T03:00:51.105Z,998.91
2017-07-20T03:01:31.568Z,998.88
2017-07-20T03:02:12.014Z,998.9
2017-07-20T03:02:52.476Z,998.91
2017-07-20T03:03:32.963Z,998.89
2017-07-20T03:05:50.786Z,998.87
2017-07-20T03:06:31.265Z,998.84
2017-07-20T03:07:11.785Z,998.9
2017-07-20T03:07:52.231Z,998.86
2017-07-20T03:08:32.665Z,998.9
2017-07-20T03:09:13.111Z,998.91
2017-07-20T03:09:53.652Z,998.91
2017-07-20T03:10:34.062Z,998.91
2017-07-20T03:11:14.547Z,998.91
2017-07-20T03:11:54.950Z,998.89
2017-07-20T03:12:35.445Z,998.87
2017-07-20T03:13:15.939Z,998.88
2017-07-20T03:13:56.369Z,998.88
2017-07-20T03:14:36.816Z,998.88
2017-07-20T03:15:17.261Z,998.86
2017-07-20T03:15:57.712Z,998.92
2017-07-20T03:16:38.160Z,998.91
2017-07-20T03:17:18.642Z,998.92
2017-07-20T03:17:59.115Z,998.93
2017-07-20T03:18:39.526Z,998.96
2017-07-20T03:19:20.002Z,998.91
2017-07-20T03:20:00.464Z,998.91
2017-07-20T03:20:40.925Z,998.95
2017-07-20T03:21:21.376Z,998.95
2017-07-20T03:22:01.829Z,998.91
2017-07-20T03:22:42.286Z,998.92
2017-07-20T03:23:23.605Z,998.91
2017-07-20T03:24:04.060Z,998.9
2017-07-20T03:24:44.515Z,998.95
2017-07-20T03:25:24.907Z,998.87
2017-07-20T03:26:05.359Z,998.89
2017-07-20T03:26:45.937Z,998.91
2017-07-20T03:27:26.300Z,998.89
2017-07-20T03:28:06.765Z,998.96
2017-07-20T03:28:47.215Z,998.97
2017-07-20T03:29:27.690Z,998.97
2017-07-20T03:30:08.148Z,998.93
2017-07-20T03:30:48.645Z,998.97
2017-07-20T03:31:29.124Z,998.97
2017-07-20T03:32:09.577Z,998.99
2017-07-20T03:32:50.045Z,999.01
2017-07-20T03:33:30.575Z,998.99
2017-07-20T03:34:11.010Z,998.97
2017-07-20T03:34:51.443Z,998.96
2017-07-20T03:35:31.887Z,998.98
2017-07-20T03:36:12.314Z,998.98
2017-07-20T03:36:52.845Z,998.97
2017-07-20T03:37:33.256Z,998.96
2017-07-20T03:38:13.804Z,998.94
2017-07-20T03:38:54.238Z,998.97
2017-07-20T03:39:34.739Z,998.96
2017-07-20T03:40:15.150Z,998.9
2017-07-20T03:40:55.620Z,999.03
2017-07-20T03:41:36.118Z,998.96
2017-07-20T03:42:16.547Z,998.98
2017-07-20T03:42:57.089Z,998.98
2017-07-20T03:43:37.528Z,999.06
2017-07-20T03:44:18.012Z,998.96
2017-07-20T03:44:58.465Z,998.98
2017-07-20T03:45:38.920Z,998.94
2017-07-20T03:47:36.584Z,999.07
2017-07-20T03:48:17.045Z,999.03
2017-07-20T03:48:57.472Z,999.05
2017-07-20T03:49:37.881Z,999.02
2017-07-20T03:50:18.378Z,999.07
2017-07-20T03:50:58.844Z,999.07
2017-07-20T03:51:39.252Z,999.08
2017-07-20T03:52:19.713Z,999.13
2017-07-20T03:53:00.218Z,999.15
2017-07-20T03:53:40.727Z,999.13
2017-07-20T03:54:21.136Z,999.19
2017-07-20T03:55:01.563Z,999.22
2017-07-20T03:55:42.006Z,999.12
2017-07-20T03:56:22.486Z,999.18
2017-07-20T03:57:02.905Z,999.17
2017-07-20T03:57:43.333Z,999.16
2017-07-20T03:58:23.756Z,999.18
2017-07-20T03:59:04.244Z,999.25
2017-07-20T03:59:44.678Z,999.21
2017-07-20T04:00:25.143Z,999.26
2017-07-20T04:01:05.637Z,999.27
2017-07-20T04:01:46.912Z,999.26
2017-07-20T04:02:27.471Z,999.25
2017-07-20T04:03:07.844Z,999.27
2017-07-20T04:03:48.342Z,999.32
2017-07-20T04:04:28.802Z,999.26
2017-07-20T04:05:09.213Z,999.27
2017-07-20T04:05:49.707Z,999.31
2017-07-20T04:06:30.155Z,999.3
2017-07-20T04:07:10.608Z,999.29
2017-07-20T04:07:51.022Z,999.32
2017-07-20T04:08:31.452Z,999.35
2017-07-20T04:09:11.917Z,999.37
2017-07-20T04:09:52.361Z,999.37
2017-07-20T04:10:32.790Z,999.4
2017-07-20T04:11:13.265Z,999.34
2017-07-20T04:11:53.731Z,999.42
2017-07-20T04:12:34.239Z,999.41
2017-07-20T04:13:14.696Z,999.44
2017-07-20T04:13:55.156Z,999.39
2017-07-20T04:14:35.618Z,999.43
2017-07-20T04:15:16.755Z,999.42
2017-07-20T04:15:57.208Z,999.43
2017-07-20T04:16:37.644Z,999.43
2017-07-20T04:17:18.120Z,999.34
2017-07-20T04:17:58.569Z,999.42
2017-07-20T04:18:38.993Z,999.43
2017-07-20T04:19:19.441Z,999.39
2017-07-20T04:19:59.929Z,999.47
2017-07-20T04:20:40.408Z,999.42
2017-07-20T04:21:20.820Z,999.4
2017-07-20T04:22:01.289Z,999.43
2017-07-20T04:22:41.701Z,999.39
2017-07-20T04:23:22.145Z,999.38
2017-07-20T04:24:02.619Z,999.39
2017-07-20T04:24:43.145Z,999.42
2017-07-20T04:25:23.575Z,999.43
2017-07-20T04:26:04.034Z,999.46
2017-07-20T04:26:44.493Z,999.44
2017-07-20T04:27:24.938Z,999.43
2017-07-20T04:28:05.389Z,999.51
2017-07-20T04:28:45.861Z,999.56
2017-07-20T04:29:26.260Z,999.55
2017-07-20T04:30:06.719Z,999.55
2017-07-20T04:30:47.180Z,999.53
2017-07-20T04:33:15.134Z,999.59
2017-07-20T04:33:55.663Z,999.63
2017-07-20T04:34:36.040Z,999.59
2017-07-20T04:35:16.518Z,999.63
2017-07-20T04:35:56.985Z,999.55
2017-07-20T04:36:37.484Z,999.59
2017-07-20T04:37:17.992Z,999.64
2017-07-20T04:37:58.432Z,999.62
2017-07-20T04:38:38.915Z,999.68
2017-07-20T04:39:19.402Z,999.63
2017-07-20T04:39:59.850Z,999.65
2017-07-20T04:40:40.339Z,999.63
2017-07-20T04:41:20.838Z,999.68
2017-07-20T04:42:01.290Z,999.69
2017-07-20T04:42:41.761Z,999.75
2017-07-20T04:43:22.225Z,999.73
2017-07-20T04:44:02.785Z,999.69
2017-07-20T04:44:43.194Z,999.68
2017-07-20T04:45:23.707Z,999.7
2017-07-20T04:46:04.140Z,999.64
2017-07-20T04:46:44.615Z,999.72
2017-07-20T04:47:25.064Z,999.68
2017-07-20T04:48:05.504Z,999.71
2017-07-20T04:48:46.060Z,999.72
2017-07-20T04:49:26.517Z,999.73
2017-07-20T04:50:06.911Z,999.69
2017-07-20T04:50:47.408Z,999.75
2017-07-20T04:51:27.794Z,999.73
2017-07-20T04:52:08.278Z,999.73
2017-07-20T04:52:48.738Z,999.72
2017-07-20T04:53:29.241Z,999.73
2017-07-20T04:54:09.706Z,999.75
2017-07-20T04:54:50.193Z,999.77
2017-07-20T04:55:30.639Z,999.78
2017-07-20T04:56:11.078Z,999.83
2017-07-20T04:56:51.503Z,999.78
2017-07-20T04:57:31.990Z,999.87
2017-07-20T04:58:12.498Z,999.82
2017-07-20T04:58:52.985Z,999.84
2017-07-20T04:59:33.395Z,999.84
2017-07-20T05:00:13.883Z,999.84
2017-07-20T05:02:11.544Z,999.79
2017-07-20T05:02:52.038Z,999.74
2017-07-20T05:03:32.528Z,999.8
2017-07-20T05:04:13.016Z,999.8
2017-07-20T05:04:53.500Z,999.81
2017-07-20T05:05:34.001Z,999.81
2017-07-20T05:06:14.483Z,999.83
2017-07-20T05:06:54.979Z,999.8
2017-07-20T05:07:35.458Z,999.83
2017-07-20T05:08:15.942Z,999.84
2017-07-20T05:08:56.423Z,999.84
2017-07-20T05:09:36.883Z,999.87
2017-07-20T05:10:17.381Z,999.91
2017-07-20T05:10:57.874Z,999.91
2017-07-20T05:11:38.353Z,999.89
2017-07-20T05:13:36.056Z,999.93
2017-07-20T05:14:16.541Z,999.84
2017-07-20T05:14:56.966Z,999.88
2017-07-20T05:15:37.438Z,999.93
2017-07-20T05:16:17.877Z,999.92
2017-07-20T05:16:58.348Z,999.91
2017-07-20T05:17:38.803Z,999.89
2017-07-20T05:18:19.288Z,999.91
2017-07-20T05:18:59.728Z,999.94
2017-07-20T05:19:40.179Z,999.85
2017-07-20T05:20:20.697Z,999.92
2017-07-20T05:21:01.195Z,999.9
2017-07-20T05:23:18.999Z,999.91
2017-07-20T05:23:59.450Z,999.9
2017-07-20T05:24:39.900Z,999.89
2017-07-20T05:25:20.351Z,999.91
2017-07-20T05:26:00.809Z,999.95
2017-07-20T05:26:41.264Z,999.96
2017-07-20T05:27:21.720Z,999.99
2017-07-20T05:29:34.392Z,1000.07
2017-07-20T05:30:14.883Z,1000.07
2017-07-20T05:30:55.380Z,1000.09
2017-07-20T05:31:35.847Z,1000.11
2017-07-20T05:32:16.313Z,1000.16
2017-07-20T05:32:56.777Z,1000.13
2017-07-20T05:33:37.203Z,1000.15
2017-07-20T05:34:17.685Z,1000.11
2017-07-20T05:34:58.146Z,1000.16
2017-07-20T05:35:38.599Z,1000.16
2017-07-20T05:36:19.053Z,1000.2
2017-07-20T05:36:59.524Z,1000.19
2017-07-20T05:37:39.994Z,1000.24
2017-07-20T05:38:20.458Z,1000.26
2017-07-20T05:39:00.957Z,1000.26
2017-07-20T05:39:41.393Z,1000.28
2017-07-20T05:40:21.998Z,1000.25
2017-07-20T05:41:02.566Z,1000.26
2017-07-20T05:41:43.051Z,1000.31
2017-07-20T05:42:23.553Z,1000.32
2017-07-20T05:43:04.024Z,1000.3
2017-07-20T05:43:44.473Z,1000.37
2017-07-20T05:44:24.891Z,1000.32
2017-07-20T05:45:05.509Z,1000.36
2017-07-20T05:45:45.974Z,1000.31
2017-07-20T05:46:26.444Z,1000.3
2017-07-20T05:47:06.949Z,1000.27
2017-07-20T05:47:47.399Z,1000.28
2017-07-20T05:48:27.907Z,1000.24
2017-07-20T05:49:08.376Z,1000.33
2017-07-20T05:49:48.999Z,1000.32
2017-07-20T05:50:29.436Z,1000.32
2017-07-20T05:51:09.936Z,1000.32
2017-07-20T05:51:50.394Z,1000.32
2017-07-20T05:52:30.854Z,1000.3
2017-07-20T05:53:11.334Z,1000.32
2017-07-20T05:53:51.749Z,1000.34
2017-07-20T05:54:32.207Z,1000.3
2017-07-20T05:55:12.680Z,1000.35
2017-07-20T05:55:53.166Z,1000.27
2017-07-20T05:56:33.670Z,1000.33
2017-07-20T05:58:31.284Z,1000.43
2017-07-20T05:59:11.803Z,1000.46
2017-07-20T05:59:52.259Z,1000.41
2017-07-20T06:00:32.751Z,1000.39
2017-07-20T06:03:00.751Z,1000.41
2017-07-20T06:03:41.181Z,1000.41
2017-07-20T06:04:21.648Z,1000.42
2017-07-20T06:05:02.089Z,1000.44
2017-07-20T06:05:42.558Z,1000.49
2017-07-20T06:06:23.014Z,1000.41
2017-07-20T06:08:51.015Z,1000.5
2017-07-20T06:09:31.473Z,1000.43
2017-07-20T06:10:11.954Z,1000.4
2017-07-20T06:10:52.462Z,1000.41
2017-07-20T06:11:32.912Z,1000.42
2017-07-20T06:12:13.451Z,1000.38
2017-07-20T06:14:11.096Z,1000.34
2017-07-20T06:14:51.602Z,1000.37
2017-07-20T06:15:32.023Z,1000.37
2017-07-20T06:16:12.549Z,1000.44
2017-07-20T06:16:53.034Z,1000.41
2017-07-20T06:17:33.458Z,1000.41
2017-07-20T06:18:13.915Z,1000.41
2017-07-20T06:20:31.784Z,1000.34
2017-07-20T06:21:12.209Z,1000.32
2017-07-20T06:21:53.544Z,1000.35
2017-07-20T06:22:34.077Z,1000.37
2017-07-20T06:23:14.878Z,1000.36
2017-07-20T06:23:55.334Z,1000.36
2017-07-20T06:24:35.803Z,1000.32
2017-07-20T06:25:16.310Z,1000.34
2017-07-20T06:25:57.396Z,1000.33
2017-07-20T06:26:42.036Z,1000.37
2017-07-20T06:27:22.535Z,1000.35
2017-07-20T06:28:03.737Z,1000.35
2017-07-20T06:28:44.217Z,1000.37
2017-07-20T06:29:24.786Z,1000.38
2017-07-20T06:30:05.307Z,1000.45
2017-07-20T06:30:45.829Z,1000.36
2017-07-20T06:31:26.366Z,1000.43
2017-07-20T06:32:07.686Z,1000.37
2017-07-20T06:32:48.112Z,1000.37
2017-07-20T06:33:28.601Z,1000.33
2017-07-20T06:34:09.067Z,1000.34
2017-07-20T06:34:49.500Z,1000.26
2017-07-20T06:35:30.034Z,1000.31
2017-07-20T06:36:11.330Z,1000.33
2017-07-20T06:36:51.788Z,1000.38
2017-07-20T06:37:32.253Z,1000.32
2017-07-20T06:38:12.839Z,1000.3
2017-07-20T06:38:53.432Z,1000.28
2017-07-20T06:39:33.933Z,1000.3
2017-07-20T06:40:14.416Z,1000.31
2017-07-20T06:40:54.939Z,1000.29
2017-07-20T06:41:35.472Z,1000.24
2017-07-20T06:42:16.003Z,1000.3
2017-07-20T06:42:56.614Z,1000.36
2017-07-20T06:43:37.429Z,1000.34
2017-07-20T06:44:18.334Z,1000.38
2017-07-20T06:44:58.898Z,1000.31
2017-07-20T06:45:39.256Z,1000.29
2017-07-20T06:46:19.796Z,1000.31
2017-07-20T06:47:00.310Z,1000.32
2017-07-20T06:47:41.019Z,1000.25
2017-07-20T06:48:21.512Z,1000.3
2017-07-20T06:49:02.061Z,1000.34
2017-07-20T06:49:43.513Z,1000.33
2017-07-20T06:50:23.923Z,1000.37
2017-07-20T06:51:04.360Z,1000.33
2017-07-20T06:52:57.018Z,1000.43
2017-07-20T06:53:37.437Z,1000.42
2017-07-20T06:54:17.900Z,1000.46
2017-07-20T06:56:30.619Z,1000.52
2017-07-20T06:57:11.091Z,1000.55
2017-07-20T06:57:51.531Z,1000.59
2017-07-20T07:00:19.511Z,1000.66
2017-07-20T07:00:59.969Z,1000.71
2017-07-20T07:01:40.533Z,1000.73
2017-07-20T07:02:21.048Z,1000.76
2017-07-20T07:04:49.074Z,1000.84
2017-07-20T07:05:29.479Z,1000.79
2017-07-20T07:06:09.993Z,1000.79
2017-07-20T07:06:50.474Z,1000.85
2017-07-20T07:07:30.993Z,1000.76
2017-07-20T07:08:11.424Z,1000.7
2017-07-20T07:08:51.881Z,1000.76
2017-07-20T07:09:32.351Z,1000.74
2017-07-20T07:10:12.791Z,1000.7
2017-07-20T07:10:53.333Z,1000.64
2017-07-20T07:11:33.776Z,1000.78
2017-07-20T07:12:14.197Z,1000.71
2017-07-20T07:12:54.654Z,1000.7
2017-07-20T07:13:35.148Z,1000.71
2017-07-20T07:14:15.596Z,1000.66
2017-07-20T07:14:56.046Z,1000.67
2017-07-20T07:15:36.498Z,1000.53
2017-07-20T07:16:16.953Z,1000.62
2017-07-20T07:16:57.477Z,1000.7
2017-07-20T07:19:15.311Z,1000.63
2017-07-20T07:19:55.834Z,1000.69
2017-07-20T07:20:36.253Z,1000.67
2017-07-20T07:21:16.769Z,1000.72
2017-07-20T07:21:57.236Z,1000.75
2017-07-20T07:22:37.707Z,1000.72
2017-07-20T07:23:18.241Z,1000.78
2017-07-20T07:23:58.655Z,1000.8
2017-07-20T07:24:39.201Z,1000.88
2017-07-20T07:25:19.709Z,1000.88
2017-07-20T07:26:00.159Z,1000.85
2017-07-20T07:26:40.575Z,1000.81
2017-07-20T07:27:21.075Z,1000.85
2017-07-20T07:28:01.559Z,1000.85
2017-07-20T07:29:59.166Z,1000.9
2017-07-20T07:30:39.632Z,1000.84
2017-07-20T07:31:20.088Z,1000.76
2017-07-20T07:32:00.550Z,1000.8
2017-07-20T07:32:41.099Z,1000.86
2017-07-20T07:33:21.633Z,1000.83
2017-07-20T07:34:02.181Z,1000.85
2017-07-20T07:36:30.226Z,1000.75
2017-07-20T07:37:10.691Z,1000.75
2017-07-20T07:37:51.107Z,1000.69
2017-07-20T07:38:31.590Z,1000.71
2017-07-20T07:39:12.016Z,1000.76
2017-07-20T07:39:52.551Z,1000.72
2017-07-20T07:40:32.987Z,1000.79
2017-07-20T07:41:13.458Z,1000.77
2017-07-20T07:41:53.958Z,1000.79
2017-07-20T07:42:34.403Z,1000.75
2017-07-20T07:43:14.858Z,1000.88
2017-07-20T07:43:55.334Z,1000.94
2017-07-20T07:45:52.994Z,1000.93
2017-07-20T07:46:33.465Z,1000.98
2017-07-20T07:47:14.052Z,1000.92
2017-07-20T07:47:54.472Z,1000.99
2017-07-20T07:48:34.934Z,1001
2017-07-20T07:49:15.413Z,1000.99
2017-07-20T07:49:55.882Z,1001.03
2017-07-20T07:50:36.365Z,1001.07
2017-07-20T07:51:16.845Z,1001.11
2017-07-20T07:51:57.354Z,1001.11
2017-07-20T07:54:25.337Z,1001.17
2017-07-20T07:55:05.847Z,1001.1
2017-07-20T07:55:46.323Z,1001.08
2017-07-20T07:56:26.852Z,1001.03
2017-07-20T07:57:07.337Z,1000.99
2017-07-20T07:57:47.774Z,1000.98
2017-07-20T07:58:28.236Z,1001.02
2017-07-20T08:00:20.843Z,1001.07
2017-07-20T08:01:01.286Z,1000.91
2017-07-20T08:01:41.733Z,1000.85
2017-07-20T08:02:22.205Z,1000.88
2017-07-20T08:03:02.696Z,1000.82
2017-07-20T08:03:43.164Z,1000.89
2017-07-20T08:06:11.995Z,1000.76
2017-07-20T08:06:52.476Z,1000.71
2017-07-20T08:07:32.948Z,1000.74
2017-07-20T08:08:13.462Z,1000.75
2017-07-20T08:08:53.905Z,1000.81
2017-07-20T08:09:34.371Z,1000.71
2017-07-20T08:10:14.846Z,1000.79
2017-07-20T08:10:55.352Z,1000.71
2017-07-20T08:11:35.857Z,1000.72
2017-07-20T08:12:16.363Z,1000.77
2017-07-20T08:12:56.897Z,1000.73
2017-07-20T08:13:37.569Z,1000.74
2017-07-20T08:14:18.037Z,1000.74
2017-07-20T08:16:46.116Z,1000.79
2017-07-20T08:17:26.566Z,1000.68
2017-07-20T08:18:07.067Z,1000.7
2017-07-20T08:20:19.763Z,1000.75
2017-07-20T08:21:00.260Z,1000.78
2017-07-20T08:21:40.763Z,1000.76
2017-07-20T08:22:21.292Z,1000.75
2017-07-20T08:23:01.736Z,1000.76
2017-07-20T08:23:42.196Z,1000.79
2017-07-20T08:24:22.674Z,1000.87
2017-07-20T08:25:03.178Z,1000.85
2017-07-20T08:25:43.613Z,1000.81
2017-07-20T08:26:24.096Z,1000.9
2017-07-20T08:27:04.566Z,1000.95
2017-07-20T08:28:57.189Z,1000.83
2017-07-20T08:29:37.661Z,1000.89
2017-07-20T08:30:18.135Z,1000.78
2017-07-20T08:30:58.592Z,1000.84
2017-07-20T08:31:39.085Z,1000.87
2017-07-20T08:32:19.725Z,1000.91
2017-07-20T08:33:00.288Z,1000.95
2017-07-20T08:33:40.797Z,1000.98
2017-07-20T08:34:21.322Z,1000.88
2017-07-20T08:35:01.840Z,1000.98
2017-07-20T08:35:42.294Z,1001.08
2017-07-20T08:36:22.749Z,1001.23
2017-07-20T08:37:03.199Z,1001.17
2017-07-20T08:37:43.692Z,1001.14
2017-07-20T08:38:24.171Z,1001.1
2017-07-20T08:39:04.692Z,1001.15
2017-07-20T08:39:45.183Z,1001.2
2017-07-20T08:40:25.667Z,1001.23
2017-07-20T08:41:06.148Z,1001.16
2017-07-20T08:41:46.598Z,1001.1
2017-07-20T08:42:27.088Z,1001.08
2017-07-20T08:43:07.565Z,1001.15
2017-07-20T08:43:48.033Z,1001.19
2017-07-20T08:45:45.740Z,1001.18
2017-07-20T08:46:26.275Z,1001.12
2017-07-20T08:47:06.762Z,1001.15
2017-07-20T08:47:47.290Z,1001.16
2017-07-20T08:48:27.806Z,1001.14
2017-07-20T08:49:08.308Z,1001.25
2017-07-20T08:49:48.804Z,1001.24
2017-07-20T08:50:29.280Z,1001.31
2017-07-20T08:51:09.727Z,1001.32
2017-07-20T08:51:50.269Z,1001.36
2017-07-20T08:52:30.770Z,1001.36
2017-07-20T08:53:11.230Z,1001.5
2017-07-20T08:53:51.721Z,1001.35
2017-07-20T08:54:32.208Z,1001.42
2017-07-20T08:55:12.697Z,1001.42
2017-07-20T08:55:53.184Z,1001.43
2017-07-20T08:56:33.670Z,1001.38
2017-07-20T08:57:14.148Z,1001.37
2017-07-20T08:57:54.628Z,1001.47
2017-07-20T08:59:52.302Z,1001.49
2017-07-20T09:00:32.798Z,1001.47
2017-07-20T09:01:13.295Z,1001.49
2017-07-20T09:01:53.760Z,1001.44
2017-07-20T09:02:34.296Z,1001.4
2017-07-20T09:03:14.830Z,1001.4
2017-07-20T09:03:55.352Z,1001.43
2017-07-20T09:04:35.831Z,1001.38
2017-07-20T09:05:16.316Z,1001.38
2017-07-20T09:05:56.776Z,1001.36
2017-07-20T09:06:37.302Z,1001.42
2017-07-20T09:07:17.823Z,1001.51
2017-07-20T09:07:58.327Z,1001.42
2017-07-20T09:08:38.833Z,1001.43
2017-07-20T09:09:19.348Z,1001.47
2017-07-20T09:09:59.837Z,1001.56
2017-07-20T09:10:40.349Z,1001.55
2017-07-20T09:11:20.830Z,1001.56
2017-07-20T09:12:01.341Z,1001.56
2017-07-20T09:12:41.843Z,1001.55
2017-07-20T09:13:22.352Z,1001.55
2017-07-20T09:14:02.896Z,1001.54
2017-07-20T09:14:43.485Z,1001.63
2017-07-20T09:15:24.013Z,1001.57
2017-07-20T09:16:04.522Z,1001.57
2017-07-20T09:16:45.012Z,1001.62
2017-07-20T09:17:25.529Z,1001.58
2017-07-20T09:18:06.049Z,1001.63
2017-07-20T09:18:46.549Z,1001.61
2017-07-20T09:19:27.061Z,1001.65
2017-07-20T09:20:07.575Z,1001.64
2017-07-20T09:20:48.113Z,1001.71
2017-07-20T09:21:28.617Z,1001.66